Time;durP1;ratioP1;P1;durP2;ratioP2;P2;SDS_P1;SDS_P2;PMS_P1;PMS_P2;Temp;Humidity;BMP_temperature;BMP_pressure;BME280_temperature;BME280_humidity;BME280_pressure;Samples;Min_cycle;Max_cycle;Signal;HPM_P1;HPM_P2
2022/04/11 00:00:19;;;;;;;6.95;2.08;;;;;;;1.41;100.00;101399.75;4984204;28;20053;-87
2022/04/11 00:02:45;;;;;;;1.88;1.55;;;;;;;1.36;100.00;101391.84;4968986;28;20106;-87
2022/04/11 00:05:14;;;;;;;4.25;2.05;;;;;;;1.35;100.00;101394.38;4981818;28;20520;-85
2022/04/11 00:07:40;;;;;;;2.42;1.77;;;;;;;1.31;100.00;101395.94;5001830;28;20145;-85
2022/04/11 00:10:08;;;;;;;3.33;1.90;;;;;;;1.28;100.00;101391.53;4969798;28;22803;-86
2022/04/11 00:12:39;;;;;;;4.55;2.13;;;;;;;1.27;100.00;101397.50;4987108;28;20058;-84
2022/04/11 00:15:08;;;;;;;3.05;2.00;;;;;;;1.24;100.00;101394.81;4984296;28;20046;-86
2022/04/11 00:17:36;;;;;;;3.60;2.30;;;;;;;1.19;100.00;101387.69;4981153;28;20193;-88
2022/04/11 00:20:06;;;;;;;2.78;1.83;;;;;;;1.18;100.00;101393.69;4986001;28;20052;-85
2022/04/11 00:22:39;;;;;;;5.15;1.73;;;;;;;1.15;100.00;101404.75;4988933;28;20052;-85
2022/04/11 00:25:06;;;;;;;8.75;4.05;;;;;;;1.13;100.00;101402.13;4972800;28;20385;-86
2022/04/11 00:27:33;;;;;;;5.95;2.58;;;;;;;1.14;100.00;101396.13;4996094;28;20034;-86
2022/04/11 00:30:00;;;;;;;3.50;1.85;;;;;;;1.14;100.00;101393.53;4973808;28;20061;-85
2022/04/11 00:32:27;;;;;;;2.33;2.05;;;;;;;1.12;100.00;101397.78;4989165;28;20417;-85
2022/04/11 00:34:55;;;;;;;3.95;2.08;;;;;;;1.11;100.00;101393.41;4954236;28;20650;-86
2022/04/11 00:37:21;;;;;;;2.83;2.50;;;;;;;1.10;100.00;101398.53;4970376;28;20047;-85
2022/04/11 00:39:49;;;;;;;6.05;2.75;;;;;;;1.06;100.00;101391.47;4985243;28;20045;-87
2022/04/11 00:42:16;;;;;;;4.43;2.60;;;;;;;1.02;100.00;101385.31;4986651;28;20054;-87
2022/04/11 00:44:43;;;;;;;3.42;2.15;;;;;;;1.01;100.00;101388.69;4985210;28;20145;-84
2022/04/11 00:47:09;;;;;;;3.70;2.10;;;;;;;1.00;100.00;101386.94;4967364;28;20057;-85
2022/04/11 00:49:36;;;;;;;2.92;1.90;;;;;;;0.96;100.00;101385.03;4985459;28;20050;-85
2022/04/11 00:52:03;;;;;;;6.97;3.30;;;;;;;0.94;100.00;101382.41;4975293;28;20050;-87
2022/04/11 00:54:32;;;;;;;2.70;2.22;;;;;;;0.91;100.00;101390.03;4987100;28;20177;-85
2022/04/11 00:57:00;;;;;;;3.33;1.95;;;;;;;0.87;100.00;101382.94;4983721;28;20065;-86
2022/04/11 00:59:29;;;;;;;4.25;2.45;;;;;;;0.87;100.00;101385.53;4986322;28;20140;-86
2022/04/11 01:01:56;;;;;;;2.78;2.03;;;;;;;0.83;100.00;101388.78;4969462;28;20065;-86
2022/04/11 01:04:27;;;;;;;5.18;2.63;;;;;;;0.79;100.00;101386.91;4989339;28;20074;-85
2022/04/11 01:06:55;;;;;;;5.80;2.30;;;;;;;0.75;100.00;101387.59;4963429;28;20051;-86
2022/04/11 01:09:24;;;;;;;5.30;2.22;;;;;;;0.73;100.00;101387.53;4974877;28;20126;-85
2022/04/11 01:11:52;;;;;;;2.50;2.30;;;;;;;0.73;100.00;101386.63;4978073;28;20039;-83
2022/04/11 01:14:24;;;;;;;4.90;2.03;;;;;;;0.73;100.00;101386.63;4978004;28;20075;-87
2022/04/11 01:16:52;;;;;;;2.20;1.95;;;;;;;0.72;100.00;101383.19;5001379;28;20050;-87
2022/04/11 01:19:20;;;;;;;5.13;3.13;;;;;;;0.73;100.00;101389.22;5007432;28;20061;-88
2022/04/11 01:21:53;;;;;;;5.82;2.97;;;;;;;0.70;100.00;101382.22;5008629;28;20042;-84
2022/04/11 01:24:21;;;;;;;3.38;2.13;;;;;;;0.68;100.00;101389.03;5006726;28;20061;-87
2022/04/11 01:26:50;;;;;;;5.97;2.60;;;;;;;0.65;100.00;101384.63;5003672;28;20465;-86
2022/04/11 01:29:19;;;;;;;7.38;2.55;;;;;;;0.66;100.00;101385.50;4981835;28;20061;-85
2022/04/11 01:31:47;;;;;;;4.80;2.42;;;;;;;0.64;100.00;101382.00;4983486;28;20053;-84
2022/04/11 01:34:15;;;;;;;3.88;2.60;;;;;;;0.62;100.00;101384.47;4985426;28;20182;-88
2022/04/11 01:36:42;;;;;;;4.88;3.13;;;;;;;0.60;100.00;101387.78;4955484;28;20054;-89
2022/04/11 01:39:08;;;;;;;3.90;2.17;;;;;;;0.57;100.00;101382.53;4981284;28;20046;-83
2022/04/11 01:41:35;;;;;;;5.65;3.33;;;;;;;0.53;100.00;101380.63;4983439;28;20042;-85
2022/04/11 01:44:01;;;;;;;4.30;2.15;;;;;;;0.49;100.00;101383.06;4985473;28;20145;-87
2022/04/11 01:46:28;;;;;;;4.30;2.60;;;;;;;0.48;100.00;101385.56;4986789;28;20040;-86
2022/04/11 01:48:55;;;;;;;5.28;1.92;;;;;;;0.46;100.00;101380.34;4980182;28;20445;-85
2022/04/11 01:51:21;;;;;;;5.03;2.50;;;;;;;0.45;100.00;101378.59;4969735;28;20043;-86
2022/04/11 01:53:48;;;;;;;2.88;2.42;;;;;;;0.46;100.00;101376.91;4977425;28;20084;-86
2022/04/11 01:56:15;;;;;;;6.25;2.60;;;;;;;0.44;100.00;101384.59;4982761;28;20149;-85
2022/04/11 01:58:41;;;;;;;3.85;2.20;;;;;;;0.42;100.00;101380.19;4982663;28;20050;-86
2022/04/11 02:01:08;;;;;;;3.60;2.70;;;;;;;0.41;100.00;101373.25;4984915;28;20947;-84
2022/04/11 02:03:35;;;;;;;3.38;1.95;;;;;;;0.39;100.00;101373.19;4980103;28;20061;-87
2022/04/11 02:06:02;;;;;;;7.70;2.22;;;;;;;0.40;100.00;101374.06;4967549;28;20054;-85
2022/04/11 02:08:29;;;;;;;4.85;2.63;;;;;;;0.41;100.00;101368.09;4987960;28;20050;-88
2022/04/11 02:10:56;;;;;;;4.05;2.35;;;;;;;0.41;100.00;101375.81;4970072;28;20053;-86
2022/04/11 02:13:24;;;;;;;5.28;2.15;;;;;;;0.37;100.00;101364.50;4969041;28;20139;-88
2022/04/11 02:15:51;;;;;;;2.65;2.10;;;;;;;0.37;100.00;101356.78;4986697;28;20046;-86
2022/04/11 02:18:17;;;;;;;3.92;2.20;;;;;;;0.38;100.00;101365.38;4979391;28;20076;-89
2022/04/11 02:20:45;;;;;;;3.10;2.17;;;;;;;0.37;100.00;101367.06;4973561;28;20073;-85
2022/04/11 02:23:14;;;;;;;2.70;2.00;;;;;;;0.36;100.00;101365.31;4998870;28;20790;-85
2022/04/11 02:25:42;;;;;;;2.00;1.77;;;;;;;0.38;100.00;101362.78;4978943;28;20059;-85
2022/04/11 02:28:09;;;;;;;2.95;2.33;;;;;;;0.38;100.00;101357.63;4963997;28;20568;-86
2022/04/11 02:30:36;;;;;;;3.90;1.88;;;;;;;0.40;100.00;101368.91;4961909;28;20108;-87
2022/04/11 02:33:03;;;;;;;4.38;2.60;;;;;;;0.38;100.00;101360.22;4978409;28;20061;-89
2022/04/11 02:35:30;;;;;;;2.97;2.08;;;;;;;0.37;100.00;101359.34;4993640;28;20042;-89
2022/04/11 02:37:56;;;;;;;3.85;2.15;;;;;;;0.36;100.00;101355.00;4982528;28;20154;-88
2022/04/11 02:40:26;;;;;;;5.68;2.17;;;;;;;0.36;100.00;101355.00;4970413;28;20137;-86
2022/04/11 02:42:54;;;;;;;6.03;2.30;;;;;;;0.33;100.00;101353.19;4971683;28;20084;-84
2022/04/11 02:45:20;;;;;;;2.00;1.90;;;;;;;0.31;100.00;101352.25;4967523;28;20054;-85
2022/04/11 02:47:49;;;;;;;2.85;1.75;;;;;;;0.28;100.00;101352.09;4971262;28;20053;-84
2022/04/11 02:50:15;;;;;;;2.10;1.90;;;;;;;0.29;100.00;101350.41;4987379;28;20666;-86
2022/04/11 02:52:43;;;;;;;4.38;2.90;;;;;;;0.32;100.00;101351.41;4980257;28;20052;-84
2022/04/11 02:55:10;;;;;;;2.42;2.22;;;;;;;0.33;100.00;101349.72;4970806;28;20038;-86
2022/04/11 02:57:38;;;;;;;5.22;2.38;;;;;;;0.36;100.00;101347.28;5001097;28;20078;-86
2022/04/11 03:00:15;;;;;;;2.30;2.05;;;;;;;0.41;100.00;101339.75;4984812;28;20397;-85
2022/04/11 03:02:44;;;;;;;1.98;1.65;;;;;;;0.42;100.00;101344.97;4979903;28;20038;-88
2022/04/11 03:05:12;;;;;;;3.42;1.98;;;;;;;0.45;100.00;101345.09;4964667;28;20390;-85
2022/04/11 03:07:40;;;;;;;3.17;1.98;;;;;;;0.51;100.00;101339.34;4972120;28;20054;-85
2022/04/11 03:10:11;;;;;;;3.42;1.95;;;;;;;0.59;100.00;101342.25;4968336;28;20731;-86
2022/04/11 03:12:39;;;;;;;3.67;2.20;;;;;;;0.69;100.00;101349.53;4981611;28;20043;-86
2022/04/11 03:15:08;;;;;;;3.75;1.90;;;;;;;0.79;100.00;101346.53;4979055;28;20854;-85
2022/04/11 03:17:35;;;;;;;3.05;2.00;;;;;;;0.88;100.00;101343.47;4964367;28;20515;-87
2022/04/11 03:20:04;;;;;;;2.00;1.77;;;;;;;0.95;100.00;101336.88;4963954;28;20187;-87
2022/04/11 03:22:32;;;;;;;2.53;1.88;;;;;;;1.03;100.00;101340.66;4966569;28;20125;-86
2022/04/11 03:25:01;;;;;;;7.10;2.55;;;;;;;1.12;100.00;101338.47;4980398;28;20101;-85
2022/04/11 03:27:29;;;;;;;3.78;1.95;;;;;;;1.21;100.00;101337.06;4967112;28;20081;-86
2022/04/11 03:29:55;;;;;;;4.57;2.17;;;;;;;1.28;100.00;101339.09;4969006;28;20120;-84
2022/04/11 03:32:22;;;;;;;7.85;2.10;;;;;;;1.35;99.71;101338.50;4965933;28;20042;-86
2022/04/11 03:34:51;;;;;;;1.73;1.60;;;;;;;1.40;99.57;101331.81;4965313;28;20518;-85
2022/04/11 03:37:18;;;;;;;3.70;2.15;;;;;;;1.45;98.17;101332.88;4992108;28;20081;-86
2022/04/11 03:39:45;;;;;;;4.05;2.00;;;;;;;1.48;97.62;101325.25;4989485;28;20050;-85
2022/04/11 03:42:12;;;;;;;3.10;2.78;;;;;;;1.51;97.34;101327.06;4970934;28;20057;-85
2022/04/11 03:44:38;;;;;;;3.10;1.75;;;;;;;1.52;97.21;101331.41;4972719;28;20129;-89
2022/04/11 03:47:13;;;;;;;4.13;1.58;;;;;;;1.55;97.01;101335.81;4984587;28;20047;-87
2022/04/11 03:49:41;;;;;;;6.55;1.73;;;;;;;1.56;97.11;101322.09;4987936;28;20074;-88
2022/04/11 03:52:09;;;;;;;1.45;1.30;;;;;;;1.58;96.47;101330.78;4984945;28;20149;-84
2022/04/11 03:54:41;;;;;;;1.45;1.35;;;;;;;1.59;96.29;101333.44;4986584;28;20042;-85
2022/04/11 03:57:08;;;;;;;3.35;2.35;;;;;;;1.58;95.69;101339.41;4988484;28;20046;-84
2022/04/11 03:59:38;;;;;;;4.10;1.55;;;;;;;1.59;95.91;101336.00;4973074;28;20072;-84
2022/04/11 04:02:05;;;;;;;6.07;2.15;;;;;;;1.60;95.36;101342.94;4982045;28;20038;-84
2022/04/11 04:04:32;;;;;;;2.88;2.00;;;;;;;1.61;95.31;101341.22;4987213;28;20046;-83
2022/04/11 04:06:59;;;;;;;2.50;1.85;;;;;;;1.61;95.24;101344.66;4959122;28;20114;-84
2022/04/11 04:09:27;;;;;;;3.67;1.90;;;;;;;1.62;95.21;101345.56;4970550;28;20038;-86
2022/04/11 04:11:57;;;;;;;2.90;1.98;;;;;;;1.64;95.88;101351.66;4967646;28;20054;-84
2022/04/11 04:14:24;;;;;;;3.60;2.20;;;;;;;1.63;95.27;101348.19;4980401;28;20045;-84
2022/04/11 04:16:50;;;;;;;10.27;5.82;;;;;;;1.62;95.28;101350.72;4965862;28;20053;-84
2022/04/11 04:19:17;;;;;;;4.85;2.78;;;;;;;1.60;95.70;101348.09;4985133;28;20573;-87
2022/04/11 04:21:44;;;;;;;2.45;2.20;;;;;;;1.61;95.45;101344.66;4985409;28;20048;-84
2022/04/11 04:24:14;;;;;;;3.58;1.50;;;;;;;1.62;95.13;101343.84;4984777;28;20057;-83
2022/04/11 04:26:40;;;;;;;3.10;1.88;;;;;;;1.63;95.16;101343.03;4988991;28;20671;-87
2022/04/11 04:29:07;;;;;;;5.13;1.85;;;;;;;1.65;94.26;101346.53;4987099;28;20042;-84
2022/04/11 04:31:34;;;;;;;2.67;2.25;;;;;;;1.68;94.59;101348.34;4985992;28;20030;-85
2022/04/11 04:34:01;;;;;;;2.55;1.67;;;;;;;1.71;93.97;101351.06;4971867;28;20069;-85
2022/04/11 04:36:29;;;;;;;4.40;1.88;;;;;;;1.72;94.10;101346.78;4983914;28;20475;-84
2022/04/11 04:38:56;;;;;;;1.90;1.60;;;;;;;1.73;93.95;101339.09;4969480;28;20043;-84
2022/04/11 04:41:23;;;;;;;10.23;2.30;;;;;;;1.74;93.77;101345.16;4975888;28;20048;-84
2022/04/11 04:43:49;;;;;;;3.85;1.77;;;;;;;1.73;93.33;101340.81;4978777;28;20106;-85
2022/04/11 04:46:18;;;;;;;2.70;1.92;;;;;;;1.74;93.56;101340.84;4984138;28;20038;-83
2022/04/11 04:48:45;;;;;;;3.10;1.75;;;;;;;1.76;93.52;101349.56;4977416;28;20088;-84
2022/04/11 04:51:14;;;;;;;4.30;2.03;;;;;;;1.79;92.87;101347.06;4999235;28;20143;-84
2022/04/11 04:53:41;;;;;;;5.28;4.00;;;;;;;1.80;92.99;101341.09;4990965;28;20122;-82
2022/04/11 04:56:07;;;;;;;3.38;2.05;;;;;;;1.86;92.62;101349.91;4980567;28;20077;-87
2022/04/11 04:58:34;;;;;;;4.68;1.95;;;;;;;1.91;92.36;101348.38;4990640;28;20043;-85
2022/04/11 05:01:02;;;;;;;7.53;2.42;;;;;;;1.94;92.20;101349.38;4989332;28;20113;-84
2022/04/11 05:03:40;;;;;;;5.07;2.35;;;;;;;1.99;91.58;101349.53;4995711;28;20042;-85
2022/04/11 05:06:15;;;;;;;5.47;3.28;;;;;;;2.06;91.35;101348.94;4947519;28;20052;-85
2022/04/11 05:08:42;;;;;;;3.58;2.40;;;;;;;2.11;91.07;101347.41;4989297;28;20085;-85
2022/04/11 05:11:13;;;;;;;4.68;3.20;;;;;;;2.18;90.65;101352.78;4987391;28;20132;-88
2022/04/11 05:13:40;;;;;;;3.97;2.88;;;;;;;2.20;90.96;101339.09;4974816;28;20544;-84
2022/04/11 05:16:07;;;;;;;5.45;3.10;;;;;;;2.25;90.51;101347.91;4973152;28;20477;-86
2022/04/11 05:18:37;;;;;;;5.18;2.28;;;;;;;2.28;89.79;101344.53;4991718;28;20050;-87
2022/04/11 05:21:04;;;;;;;3.95;2.00;;;;;;;2.27;89.53;101345.41;4985983;28;20094;-86
2022/04/11 05:23:31;;;;;;;2.90;2.05;;;;;;;2.29;89.98;101349.78;4987969;28;20046;-84
2022/04/11 05:25:58;;;;;;;3.42;1.77;;;;;;;2.34;89.96;101351.66;4987000;28;20061;-85
2022/04/11 05:28:26;;;;;;;3.40;2.28;;;;;;;2.40;89.29;101354.44;4986401;28;20049;-87
2022/04/11 05:30:55;;;;;;;2.22;1.98;;;;;;;2.44;89.02;101346.00;4975752;28;20038;-87
2022/04/11 05:33:24;;;;;;;6.63;1.88;;;;;;;2.48;88.23;101340.97;5007343;28;20035;-86
2022/04/11 05:35:53;;;;;;;5.00;2.35;;;;;;;2.49;88.74;101341.88;4986601;28;20041;-86
2022/04/11 05:38:23;;;;;;;3.17;2.38;;;;;;;2.51;88.32;101347.09;4976247;28;20062;-85
2022/04/11 05:40:56;;;;;;;3.42;1.88;;;;;;;2.53;88.11;101342.84;4987399;28;20054;-86
2022/04/11 05:43:24;;;;;;;1.70;1.60;;;;;;;2.55;87.84;101342.06;4977159;28;20147;-83
2022/04/11 05:45:51;;;;;;;3.80;2.45;;;;;;;2.56;87.95;101348.13;4987155;28;20073;-85
2022/04/11 05:48:17;;;;;;;4.40;2.15;;;;;;;2.55;87.38;101341.19;4988811;28;20564;-87
2022/04/11 05:50:46;;;;;;;5.13;2.08;;;;;;;2.53;87.29;101342.84;4984408;28;20042;-84
2022/04/11 05:53:13;;;;;;;2.70;2.40;;;;;;;2.51;87.54;101344.50;4991021;28;20055;-85
2022/04/11 05:55:40;;;;;;;3.38;2.53;;;;;;;2.51;87.42;101342.78;4992772;28;20042;-86
2022/04/11 05:58:07;;;;;;;6.43;2.33;;;;;;;2.57;86.93;101348.19;4971778;28;20038;-84
2022/04/11 06:00:43;;;;;;;11.40;3.50;;;;;;;2.63;86.63;101347.50;4987483;28;20380;-85
2022/04/11 06:03:14;;;;;;;6.32;2.40;;;;;;;2.70;85.64;101346.00;4990249;28;20057;-84
2022/04/11 06:05:42;;;;;;;3.67;2.25;;;;;;;2.72;85.05;101342.66;4981765;28;20060;-86
2022/04/11 06:08:10;;;;;;;3.53;2.67;;;;;;;2.79;85.42;101344.63;5003662;28;20021;-87
2022/04/11 06:16:58;;;;;;;2.85;2.50;;;;;;;3.02;84.11;101344.50;5012501;28;20045;-85
2022/04/11 06:20:04;;;;;;;6.03;3.10;;;;;;;3.10;83.65;101356.00;5005441;28;20074;-85
2022/04/11 06:22:31;;;;;;;5.82;2.55;;;;;;;3.18;83.56;101350.19;4975974;28;20039;-86
2022/04/11 06:25:05;;;;;;;6.82;2.72;;;;;;;3.25;82.87;101355.63;4981931;28;20189;-86
2022/04/11 06:27:32;;;;;;;4.72;3.13;;;;;;;3.29;82.62;101354.00;4979361;28;20046;-85
2022/04/11 06:29:59;;;;;;;3.00;2.25;;;;;;;3.33;82.55;101353.28;4983153;28;20153;-84
2022/04/11 06:32:31;;;;;;;6.22;2.67;;;;;;;3.41;82.56;101358.69;4988442;28;20041;-84
2022/04/11 06:34:58;;;;;;;6.13;3.58;;;;;;;3.50;82.29;101352.94;4987637;28;20133;-86
2022/04/11 06:37:25;;;;;;;2.55;2.17;;;;;;;3.64;81.85;101352.53;4983003;28;20050;-86
2022/04/11 06:39:53;;;;;;;4.13;2.30;;;;;;;3.83;81.33;101347.88;5002667;28;20579;-85
2022/04/11 06:42:22;;;;;;;9.57;6.13;;;;;;;4.12;80.11;101355.66;4986592;28;20113;-85
2022/04/11 06:44:49;;;;;;;3.25;2.72;;;;;;;4.44;79.64;101341.00;4985540;28;20136;-85
2022/04/11 06:47:17;;;;;;;6.22;3.45;;;;;;;4.81;77.99;101354.09;4970760;28;20045;-85
2022/04/11 06:49:44;;;;;;;6.80;3.05;;;;;;;5.17;76.75;101342.84;4986642;28;20061;-84
2022/04/11 06:52:12;;;;;;;4.75;3.15;;;;;;;5.44;74.25;101342.63;4977123;28;20047;-87
2022/04/11 06:54:38;;;;;;;21.27;10.02;;;;;;;5.74;74.61;101343.31;4982042;28;20066;-87
2022/04/11 06:57:05;;;;;;;4.70;3.42;;;;;;;6.05;72.74;101341.38;4980964;28;20043;-86
2022/04/11 06:59:32;;;;;;;10.60;4.82;;;;;;;6.34;72.25;101333.31;4982841;28;20101;-86
2022/04/11 07:02:08;;;;;;;6.47;3.38;;;;;;;6.68;70.94;101331.34;4972813;28;20715;-85
2022/04/11 07:04:38;;;;;;;3.60;2.67;;;;;;;6.93;68.75;101333.50;4984154;28;20072;-85
2022/04/11 07:07:05;;;;;;;4.72;2.65;;;;;;;7.16;67.23;101327.81;4973145;28;20046;-85
2022/04/11 07:09:32;;;;;;;4.88;2.78;;;;;;;7.38;66.67;101323.81;4988250;28;20057;-84
2022/04/11 07:12:01;;;;;;;8.70;2.55;;;;;;;7.70;65.16;101328.59;4989792;28;20039;-85
2022/04/11 07:14:28;;;;;;;7.75;4.93;;;;;;;8.06;64.64;101336.88;4989220;28;20290;-83
2022/04/11 07:16:55;;;;;;;8.68;4.30;;;;;;;8.48;63.74;101333.03;4971878;28;20070;-85
2022/04/11 07:19:23;;;;;;;4.25;2.47;;;;;;;8.88;62.08;101328.22;4977777;28;20050;-86
2022/04/11 07:21:50;;;;;;;3.45;2.10;;;;;;;9.20;60.81;101338.03;4956973;28;20049;-86
2022/04/11 07:24:23;;;;;;;9.98;2.70;;;;;;;9.51;59.30;101335.66;4989458;28;20050;-84
2022/04/11 07:26:51;;;;;;;3.88;2.38;;;;;;;9.85;58.78;101340.22;4973928;28;20438;-85
2022/04/11 07:29:18;;;;;;;3.22;1.63;;;;;;;10.19;57.22;101341.22;4989112;28;20051;-84
2022/04/11 07:31:52;;;;;;;3.60;2.42;;;;;;;10.47;55.00;101327.38;4973737;28;20473;-84
2022/04/11 07:34:20;;;;;;;2.55;1.83;;;;;;;10.81;53.72;101335.28;4991286;28;20165;-87
2022/04/11 07:36:49;;;;;;;2.38;1.50;;;;;;;11.17;53.51;101339.69;4970871;28;20043;-84
2022/04/11 07:39:18;;;;;;;3.22;1.73;;;;;;;11.54;51.33;101328.28;4955405;28;20113;-85
2022/04/11 07:41:45;;;;;;;2.58;1.35;;;;;;;11.95;50.38;101322.03;4968858;28;20050;-85
2022/04/11 07:44:12;;;;;;;2.50;1.73;;;;;;;12.21;48.46;101336.81;4980793;28;20177;-89
2022/04/11 07:46:40;;;;;;;2.25;1.70;;;;;;;12.52;48.40;101323.53;4983072;28;20050;-84
2022/04/11 07:49:08;;;;;;;3.92;2.38;;;;;;;12.76;47.18;101326.88;4973032;28;20224;-84
2022/04/11 07:51:39;;;;;;;4.55;2.20;;;;;;;13.01;46.03;101328.44;4982316;28;20422;-85
2022/04/11 07:54:08;;;;;;;6.43;2.72;;;;;;;13.20;44.94;101331.75;4976108;28;20050;-86
2022/04/11 07:56:35;;;;;;;2.60;2.38;;;;;;;13.45;44.95;101328.06;4988830;28;20045;-86
2022/04/11 07:59:01;;;;;;;4.72;1.80;;;;;;;13.84;44.28;101329.38;4987050;28;20066;-84
2022/04/11 08:01:28;;;;;;;3.10;2.20;;;;;;;14.26;43.01;101325.34;4974828;28;20047;-84
2022/04/11 08:03:55;;;;;;;6.93;3.10;;;;;;;14.29;39.83;101323.56;4987481;28;20416;-84
2022/04/11 08:06:22;;;;;;;3.88;3.35;;;;;;;14.47;39.62;101330.34;4990601;28;20075;-83
2022/04/11 08:08:49;;;;;;;4.22;2.53;;;;;;;14.69;39.45;101330.03;4989342;28;20515;-85
2022/04/11 08:11:18;;;;;;;4.60;2.50;;;;;;;15.00;38.41;101327.78;4991532;28;20038;-85
2022/04/11 08:13:48;;;;;;;2.38;2.17;;;;;;;15.15;37.55;101331.09;4999629;28;20054;-86
2022/04/11 08:16:15;;;;;;;3.75;1.65;;;;;;;15.31;37.66;101323.75;4983626;28;20105;-86
2022/04/11 08:18:42;;;;;;;2.92;1.67;;;;;;;15.38;36.05;101318.34;4983256;28;20047;-86
2022/04/11 08:21:09;;;;;;;2.70;1.70;;;;;;;15.61;36.08;101322.31;4964916;28;20070;-83
2022/04/11 08:23:35;;;;;;;5.00;1.45;;;;;;;15.83;35.66;101321.94;4986455;28;20056;-84
2022/04/11 08:26:02;;;;;;;3.97;1.10;;;;;;;16.37;35.13;101323.41;4988251;28;20066;-84
2022/04/11 08:28:29;;;;;;;1.52;0.88;;;;;;;16.50;32.30;101322.25;4976161;28;20050;-82
2022/04/11 08:30:55;;;;;;;1.95;1.02;;;;;;;16.39;32.60;101332.19;4987137;28;20539;-84
2022/04/11 08:33:23;;;;;;;2.10;0.88;;;;;;;16.86;32.39;101326.69;4986549;28;20053;-87
2022/04/11 08:35:49;;;;;;;2.20;0.80;;;;;;;17.67;32.01;101336.09;4972371;28;20046;-83
2022/04/11 08:38:16;;;;;;;2.53;1.35;;;;;;;18.13;30.02;101329.53;4992708;28;20501;-84
2022/04/11 08:40:44;;;;;;;2.30;1.20;;;;;;;17.62;29.52;101338.00;4969616;28;20497;-82
2022/04/11 08:43:11;;;;;;;2.88;1.25;;;;;;;16.74;31.04;101332.28;4975159;28;20118;-85
2022/04/11 08:45:38;;;;;;;2.08;1.38;;;;;;;16.33;30.51;101335.81;4985410;28;20397;-86
2022/04/11 08:48:05;;;;;;;2.20;0.82;;;;;;;15.95;31.43;101336.66;4978063;28;20053;-85
2022/04/11 08:50:32;;;;;;;3.97;1.25;;;;;;;16.09;31.97;101339.00;4991767;28;20153;-84
2022/04/11 08:52:58;;;;;;;2.50;1.10;;;;;;;16.31;31.00;101329.72;4970801;28;20051;-85
2022/04/11 08:55:25;;;;;;;3.22;1.13;;;;;;;16.51;30.96;101336.34;4991662;28;20052;-85
2022/04/11 08:57:52;;;;;;;1.98;1.13;;;;;;;16.81;30.66;101331.22;4995402;28;20137;-89
2022/04/11 09:00:20;;;;;;;1.27;1.27;;;;;;;16.95;29.66;101329.16;4980732;28;20049;-84
2022/04/11 09:02:48;;;;;;;1.23;1.23;;;;;;;17.19;29.49;101334.72;4989708;28;20035;-83
2022/04/11 09:05:22;;;;;;;2.25;1.60;;;;;;;16.70;29.18;101329.72;4973536;28;20046;-87
2022/04/11 09:07:51;;;;;;;2.03;1.40;;;;;;;16.32;30.38;101336.75;4988967;28;20038;-84
2022/04/11 09:10:27;;;;;;;2.75;1.58;;;;;;;15.93;30.53;101330.53;4991628;28;20050;-85
2022/04/11 09:12:58;;;;;;;1.35;1.25;;;;;;;15.63;31.33;101330.19;4991729;28;20050;-87
2022/04/11 09:15:31;;;;;;;3.40;1.95;;;;;;;15.88;31.15;101326.22;4976958;28;20167;-86
2022/04/11 09:18:01;;;;;;;2.70;1.50;;;;;;;16.05;31.15;101330.28;4994731;28;20073;-85
2022/04/11 09:20:30;;;;;;;2.90;2.08;;;;;;;16.04;31.59;101328.53;4974690;28;20309;-83
2022/04/11 09:22:59;;;;;;;3.15;1.67;;;;;;;16.52;30.89;101323.06;4976083;28;20144;-85
2022/04/11 09:25:30;;;;;;;3.13;2.53;;;;;;;16.90;29.63;101312.53;4987865;28;20567;-87
2022/04/11 09:28:12;;;;;;;2.25;1.85;;;;;;;16.90;29.39;101316.94;4984572;28;20050;-84
2022/04/11 09:30:43;;;;;;;1.95;1.50;;;;;;;16.80;30.01;101313.63;4973132;28;20060;-85
2022/04/11 09:37:02;;;;;;;4.40;2.28;;;;;;;17.23;28.63;101317.00;5006515;28;20058;-82
2022/04/11 09:39:36;;;;;;;4.88;2.58;;;;;;;17.38;27.94;101313.94;4970247;28;20058;-89
2022/04/11 09:42:04;;;;;;;4.55;2.70;;;;;;;17.56;28.06;101323.19;4983608;28;20046;-85
2022/04/11 09:44:44;;;;;;;3.72;3.42;;;;;;;17.91;27.63;101320.44;4955608;28;20497;-86
2022/04/11 09:47:12;;;;;;;5.85;3.13;;;;;;;18.09;27.92;101311.97;4973869;28;20053;-87
2022/04/11 09:49:39;;;;;;;3.83;2.95;;;;;;;18.03;28.07;101317.47;4997936;28;20061;-87
2022/04/11 09:54:59;;;;;;;6.32;3.55;;;;;;;17.52;28.24;101309.16;5004746;28;20804;-84
2022/04/11 09:57:31;;;;;;;5.20;3.30;;;;;;;17.59;28.10;101317.78;4977029;28;20404;-86
2022/04/11 10:00:04;;;;;;;6.45;3.50;;;;;;;18.32;27.17;101300.66;4977248;28;20061;-84
2022/04/11 10:02:34;;;;;;;4.00;3.60;;;;;;;19.76;26.58;101303.78;4985838;28;20074;-84
2022/04/11 10:05:02;;;;;;;6.60;4.03;;;;;;;21.10;24.55;101300.31;4970839;28;20054;-84
2022/04/11 10:07:29;;;;;;;4.13;3.38;;;;;;;22.09;23.83;101297.75;4960426;28;20050;-85
2022/04/11 10:09:59;;;;;;;3.55;3.25;;;;;;;22.38;23.66;101292.88;4970343;28;20056;-84
2022/04/11 10:12:26;;;;;;;4.78;3.92;;;;;;;23.00;23.00;101297.81;4986211;28;20253;-83
2022/04/11 10:14:54;;;;;;;5.22;4.20;;;;;;;23.58;22.52;101292.16;4979904;28;20102;-85
2022/04/11 10:17:22;;;;;;;5.10;4.00;;;;;;;24.04;21.99;101278.09;4958521;28;20119;-89
2022/04/11 10:19:50;;;;;;;7.70;4.63;;;;;;;24.33;21.58;101275.59;4984230;28;20100;-90
2022/04/11 10:22:27;;;;;;;5.05;4.55;;;;;;;24.56;20.89;101271.59;4987268;28;20053;-85
2022/04/11 10:25:12;;;;;;;6.05;3.90;;;;;;;25.06;21.29;101272.25;5000166;28;20049;-84
2022/04/11 10:27:39;;;;;;;4.03;3.63;;;;;;;25.59;20.76;101264.56;4990301;28;20428;-92
2022/04/11 10:30:33;;;;;;;4.38;3.97;;;;;;;25.41;18.96;101271.94;4987073;28;20047;-84
2022/04/11 10:33:04;;;;;;;3.95;3.65;;;;;;;25.18;19.87;101264.41;4986735;28;20137;-85
2022/04/11 10:35:43;;;;;;;5.45;4.00;;;;;;;25.15;19.79;101272.63;4970194;28;20055;-86
2022/04/11 10:38:15;;;;;;;5.38;3.90;;;;;;;25.40;19.65;101266.69;4987247;28;20406;-87
2022/04/11 10:40:49;;;;;;;4.10;3.50;;;;;;;25.96;18.83;101257.81;4966780;28;20094;-86
2022/04/11 10:43:18;;;;;;;3.33;3.03;;;;;;;26.06;18.29;101256.28;4986176;28;20128;-84
2022/04/11 10:45:59;;;;;;;4.53;3.33;;;;;;;25.35;18.54;101263.41;4983712;28;20045;-85
2022/04/11 10:49:05;;;;;;;4.30;3.20;;;;;;;25.12;18.12;101254.91;4987502;28;20821;-83
2022/04/11 10:51:32;;;;;;;4.18;3.30;;;;;;;25.71;19.43;101251.34;4975708;28;20076;-84
2022/04/11 12:46:10;;;;;;;5.10;3.08;;;;;;;30.12;14.44;101139.38;5196822;23;20062;-82
2022/04/11 12:48:57;;;;;;;3.40;3.10;;;;;;;30.07;14.11;101138.06;4950334;28;20046;-84
2022/04/11 12:51:27;;;;;;;3.33;3.13;;;;;;;30.54;14.48;101137.72;4962929;28;20061;-83
2022/04/11 12:54:01;;;;;;;3.70;2.90;;;;;;;31.30;13.49;101130.16;4962784;28;20453;-83
2022/04/11 12:56:49;;;;;;;3.40;3.15;;;;;;;31.10;12.68;101121.09;4945993;28;20069;-84
2022/04/11 12:59:37;;;;;;;3.53;3.22;;;;;;;30.58;13.60;101125.66;4971374;28;20364;-83
2022/04/11 13:02:10;;;;;;;3.00;2.40;;;;;;;30.78;14.16;101122.09;4952296;28;20055;-83
2022/04/11 13:04:44;;;;;;;4.78;3.20;;;;;;;30.99;14.11;101119.34;4964768;28;21136;-85
2022/04/11 13:07:12;;;;;;;3.38;3.08;;;;;;;31.08;13.11;101114.13;4965153;28;20070;-83
2022/04/11 13:09:42;;;;;;;4.75;3.45;;;;;;;30.84;13.80;101110.72;4960515;28;20038;-84
2022/04/11 13:12:10;;;;;;;3.78;2.72;;;;;;;31.09;13.31;101107.72;4960030;28;20042;-84
2022/04/11 13:14:42;;;;;;;2.65;2.42;;;;;;;31.52;13.38;101103.84;4933150;28;20134;-84
2022/04/11 13:19:55;;;;;;;2.95;2.72;;;;;;;32.21;13.17;101104.78;4953629;28;20046;-84
2022/04/11 13:22:23;;;;;;;4.90;2.63;;;;;;;32.65;12.46;101098.84;4961907;28;20358;-83
2022/04/11 13:24:51;;;;;;;3.63;3.30;;;;;;;32.25;12.63;101099.94;4932395;28;21172;-84
2022/04/11 13:27:21;;;;;;;3.58;3.22;;;;;;;31.65;13.14;101099.06;4931448;28;20042;-84
2022/04/11 13:29:49;;;;;;;2.83;2.63;;;;;;;31.81;13.01;101100.34;4940623;28;20047;-86
2022/04/11 13:32:16;;;;;;;5.65;3.72;;;;;;;32.14;13.00;101100.91;4941461;28;20077;-86
2022/04/11 13:34:42;;;;;;;3.58;3.33;;;;;;;31.92;13.32;101093.94;4956156;28;20081;-86
2022/04/11 13:37:10;;;;;;;4.30;3.17;;;;;;;31.38;13.57;101088.88;4976463;28;20077;-86
2022/04/11 13:39:36;;;;;;;3.13;2.92;;;;;;;31.42;13.61;101086.72;4938998;28;20077;-87
2022/04/11 13:42:04;;;;;;;4.15;3.75;;;;;;;31.27;13.57;101089.00;4936138;28;20052;-86